Jack northrop Field Hawthorne Municipal Airport Hawthorne US
ICAO: KHHR
IATA: HHR
Category: Medium
Scheduled Services: No

Elevation: 66 ft
TransAlt. 18000 ft.

Airport Communications:
SOCAL APP:124.3
ATIS:118.4
CTAF:121.1
SOCAL DEP:124.3
GND:125.1
HAWTHORNE RDO:122.2
TWR:121.1

KHHR Zoom In..

Runways:

(A) RW 07 length 4956 ft width 100 ft
LOC 109.10 / hdg 73

(B) RW 25 length 4956 ft width 100 ft
LOC 109.10 / hdg 253

Location; KHHR
Day. 24 / Time. 13.53 Zulu
* Altimeter: 30.07
* Temperature: 15° c. 59°f.
* Wind from: 290° Speed 03 kn.
Dewpoint: 14° c.
Visibility: 4 Statute Miles.
Clouds: Overcast 1800 ft.
Conditions: Mist.

KHHR 241353Z 29003KT 4SM BR OVC018 15/14 A3007 RMK AO2 RAB34E5


Wind From 290°
Speed 03 kn.

 
 
jpsmedia.com for Web Design SOUNDCLOUD worldairports.se 2018   terms of use